La Barge, Wyoming
Current Conditions -  °F | °C
As of 8:53 PM on Sunday 23 Nov 2014 (Local Time) from KBPI Reporting Station
Clear Clear  
Wind Chill: 25°   Ceiling: Unl
Heat Index: 30°   Visibility: 10mi
Dew Point: 10°   Wind: 5mph
Humidity: 43%   Direction: 170°S
Pressure: 30.02"   Gusts: NA
Location:  42.26°N, 110.19°W
Report Text: KBPI 240353Z AUTO 17004KT 10SM CLR M01/M12 A3002 RMK AO2 SLP152 T10111122
Loading
Personal Weather Stations






























Interactive Weather Map New forecast layout! Learn more

10-Day Weather Forecast

Advertisements
Track Severe Weather on mobile